Time;durP1;ratioP1;P1;durP2;ratioP2;P2;SDS_P1;SDS_P2;PMS_P1;PMS_P2;Temp;Humidity;BMP_temperature;BMP_pressure;BME280_temperature;BME280_humidity;BME280_pressure;Samples;Min_cycle;Max_cycle;Signal;HPM_P1;HPM_P2
2020/12/14 00:00:54;;;;;;;24.63;10.77;;;0.70;99.90;;;;;;2073907;28;20640;-60
2020/12/14 00:01:55;;;;;;;29.87;12.23;;;0.60;99.90;;;;;;2074151;28;20199;-61
2020/12/14 00:03:00;;;;;;;37.47;11.73;;;0.60;99.90;;;;;;2073294;28;20724;-60
2020/12/14 00:04:01;;;;;;;46.13;13.20;;;0.60;99.90;;;;;;2073756;28;20170;-60
2020/12/14 00:05:02;;;;;;;30.40;11.50;;;0.60;99.90;;;;;;2074457;28;20248;-62
2020/12/14 00:06:03;;;;;;;29.30;11.35;;;0.60;99.90;;;;;;2074140;28;20182;-61
2020/12/14 00:07:04;;;;;;;35.63;13.27;;;0.60;99.90;;;;;;2074283;28;20312;-61
2020/12/14 00:08:05;;;;;;;35.63;11.90;;;0.60;99.90;;;;;;2074287;28;20661;-61
2020/12/14 00:09:06;;;;;;;45.90;13.07;;;0.60;99.90;;;;;;2074199;28;20179;-61
2020/12/14 00:10:07;;;;;;;52.53;12.10;;;0.70;99.90;;;;;;2074453;28;20182;-61
2020/12/14 00:11:08;;;;;;;47.20;14.18;;;0.70;99.90;;;;;;2074048;28;20524;-60
2020/12/14 00:12:10;;;;;;;36.73;12.10;;;0.70;99.90;;;;;;2074364;28;20277;-62
2020/12/14 00:13:10;;;;;;;32.88;12.43;;;0.80;99.90;;;;;;2074228;28;20181;-61
2020/12/14 00:14:11;;;;;;;75.97;18.43;;;0.80;99.90;;;;;;2074394;28;20260;-61
2020/12/14 00:15:12;;;;;;;55.50;13.10;;;0.90;99.90;;;;;;2074177;28;20678;-62
2020/12/14 00:16:13;;;;;;;91.63;17.60;;;0.90;99.90;;;;;;2074473;28;20264;-60
2020/12/14 00:17:18;;;;;;;39.83;13.80;;;0.90;99.90;;;;;;2074363;28;20178;-62
2020/12/14 00:18:19;;;;;;;69.30;13.18;;;0.90;99.90;;;;;;2074355;28;20251;-61
2020/12/14 00:19:20;;;;;;;90.53;13.67;;;0.90;99.90;;;;;;2074070;28;20192;-61
2020/12/14 00:20:21;;;;;;;56.85;14.20;;;0.90;99.90;;;;;;2074318;28;20187;-65
2020/12/14 00:21:22;;;;;;;94.23;18.03;;;0.90;99.90;;;;;;2074240;28;20192;-61
2020/12/14 00:22:22;;;;;;;47.47;14.80;;;1.00;99.90;;;;;;2074231;28;20185;-61
2020/12/14 00:23:23;;;;;;;85.90;16.50;;;1.00;99.90;;;;;;2073883;28;20209;-62
2020/12/14 00:24:24;;;;;;;43.67;12.33;;;1.10;99.90;;;;;;2074238;28;20557;-60
2020/12/14 00:25:24;;;;;;;57.87;14.40;;;1.00;99.90;;;;;;2074056;28;20261;-61
2020/12/14 00:26:25;;;;;;;63.33;15.80;;;1.10;99.90;;;;;;2073594;28;20193;-61
2020/12/14 00:27:26;;;;;;;88.53;18.10;;;1.10;99.90;;;;;;2073740;28;20176;-61
2020/12/14 00:28:27;;;;;;;72.70;14.48;;;1.10;99.90;;;;;;2074279;28;20178;-61
2020/12/14 00:29:27;;;;;;;105.27;19.77;;;1.20;99.90;;;;;;2073566;28;20197;-62
2020/12/14 00:30:28;;;;;;;54.37;14.77;;;1.20;99.90;;;;;;2074387;28;20174;-61
2020/12/14 00:31:29;;;;;;;41.93;13.40;;;1.20;99.90;;;;;;2074257;28;20186;-62
2020/12/14 00:32:29;;;;;;;34.80;11.57;;;1.20;99.90;;;;;;2074354;28;20273;-61
2020/12/14 00:33:30;;;;;;;37.33;13.37;;;1.20;99.90;;;;;;2074229;28;20185;-62
2020/12/14 00:34:31;;;;;;;40.97;12.27;;;1.20;99.90;;;;;;2074595;28;20190;-63
2020/12/14 00:35:31;;;;;;;59.00;14.13;;;1.20;99.90;;;;;;2074532;28;20176;-62
2020/12/14 00:36:32;;;;;;;57.73;13.90;;;1.30;99.90;;;;;;2074495;28;20271;-62
2020/12/14 00:37:33;;;;;;;74.30;15.47;;;1.20;99.90;;;;;;2074908;28;20212;-62
2020/12/14 00:38:34;;;;;;;75.03;15.37;;;1.30;99.90;;;;;;2078138;28;20193;-63
2020/12/14 00:39:35;;;;;;;60.67;13.77;;;1.30;99.90;;;;;;2077470;28;20277;-62
2020/12/14 00:40:36;;;;;;;69.20;14.63;;;1.30;99.90;;;;;;2077625;28;20511;-64
2020/12/14 00:41:36;;;;;;;73.70;14.67;;;1.30;99.90;;;;;;2074330;28;20181;-63
2020/12/14 00:42:42;;;;;;;94.10;17.13;;;1.30;99.90;;;;;;2075558;28;20202;-62
2020/12/14 00:43:43;;;;;;;61.13;14.40;;;1.30;99.90;;;;;;2075966;28;20177;-61
2020/12/14 00:44:44;;;;;;;36.53;12.30;;;1.30;99.90;;;;;;2075973;28;20185;-63
2020/12/14 00:45:44;;;;;;;69.70;16.33;;;1.30;99.90;;;;;;2078481;28;20475;-60
2020/12/14 00:46:45;;;;;;;47.37;14.47;;;1.20;99.90;;;;;;2073865;28;20206;-61
2020/12/14 00:47:46;;;;;;;43.87;11.90;;;1.20;99.90;;;;;;2073917;28;20188;-62
2020/12/14 00:48:47;;;;;;;46.90;14.20;;;1.30;99.90;;;;;;2073634;28;20169;-61
2020/12/14 00:49:47;;;;;;;32.03;12.30;;;1.30;99.90;;;;;;2073733;28;20178;-62
2020/12/14 00:50:48;;;;;;;55.47;14.87;;;1.30;99.90;;;;;;2073745;28;20178;-61
2020/12/14 00:51:49;;;;;;;61.63;14.97;;;1.80;99.90;;;;;;2073584;28;20185;-62
2020/12/14 00:52:50;;;;;;;45.67;12.15;;;1.30;99.90;;;;;;2073360;28;20259;-61
2020/12/14 00:53:50;;;;;;;66.50;17.10;;;1.30;99.90;;;;;;2073482;28;20211;-62
2020/12/14 00:54:51;;;;;;;76.97;13.33;;;1.30;99.90;;;;;;2073799;28;20213;-61
2020/12/14 00:55:52;;;;;;;57.20;14.77;;;1.40;99.90;;;;;;2073521;28;20209;-60
2020/12/14 00:56:52;;;;;;;41.73;11.33;;;1.30;99.90;;;;;;2073495;28;20251;-61
2020/12/14 00:57:53;;;;;;;39.00;13.30;;;1.40;99.90;;;;;;2073529;28;20260;-61
2020/12/14 00:58:54;;;;;;;32.30;12.57;;;1.30;99.90;;;;;;2073417;28;20264;-62
2020/12/14 00:59:54;;;;;;;37.97;12.43;;;1.40;99.90;;;;;;2073630;28;20655;-62
2020/12/14 01:00:55;;;;;;;30.53;12.43;;;1.40;99.90;;;;;;2073319;28;20182;-61
2020/12/14 01:01:56;;;;;;;35.08;12.38;;;1.40;99.90;;;;;;2073685;28;20232;-63
2020/12/14 01:02:57;;;;;;;39.00;14.13;;;1.40;99.90;;;;;;2073199;28;20213;-61
2020/12/14 01:03:58;;;;;;;21.60;10.07;;;1.40;99.90;;;;;;2073280;28;20669;-61
2020/12/14 01:04:59;;;;;;;39.42;13.50;;;1.40;99.90;;;;;;2073519;28;20197;-62
2020/12/14 01:06:01;;;;;;;25.47;10.93;;;1.40;99.90;;;;;;2073511;28;20316;-59
2020/12/14 01:07:02;;;;;;;33.20;12.02;;;1.40;99.90;;;;;;2073391;28;20261;-62
2020/12/14 01:08:03;;;;;;;31.93;12.43;;;1.40;99.90;;;;;;2073516;28;20553;-61
2020/12/14 01:09:03;;;;;;;29.73;11.67;;;1.40;99.90;;;;;;2073289;28;20182;-62
2020/12/14 01:10:04;;;;;;;29.07;12.03;;;1.40;99.90;;;;;;2073418;28;20261;-60
2020/12/14 01:11:05;;;;;;;26.67;11.53;;;1.40;99.90;;;;;;2073205;28;20679;-61
2020/12/14 01:12:05;;;;;;;24.33;10.93;;;1.50;99.90;;;;;;2073355;28;20177;-62
2020/12/14 01:13:06;;;;;;;30.07;11.37;;;1.50;99.90;;;;;;2073289;28;20198;-62
2020/12/14 01:14:06;;;;;;;30.00;12.10;;;1.50;99.90;;;;;;2073329;28;20675;-60
2020/12/14 01:15:07;;;;;;;35.37;12.47;;;1.50;99.90;;;;;;2073365;28;20192;-62
2020/12/14 01:16:08;;;;;;;25.27;11.97;;;1.50;99.90;;;;;;2073296;28;20204;-61
2020/12/14 01:17:10;;;;;;;28.47;11.33;;;1.60;99.90;;;;;;2073415;28;20665;-62
2020/12/14 01:18:11;;;;;;;25.60;11.57;;;1.50;99.90;;;;;;2073491;28;20602;-62
2020/12/14 01:19:11;;;;;;;27.27;11.00;;;1.50;99.90;;;;;;2073262;28;20192;-63
2020/12/14 01:20:14;;;;;;;29.13;11.20;;;1.50;99.90;;;;;;2073092;28;20664;-62
2020/12/14 01:21:22;;;;;;;26.27;11.68;;;1.50;99.90;;;;;;2073155;28;20181;-62
2020/12/14 01:22:22;;;;;;;31.15;12.32;;;1.50;99.90;;;;;;2073313;28;20185;-61
2020/12/14 01:23:23;;;;;;;19.63;9.67;;;1.40;99.90;;;;;;2073311;28;20796;-61
2020/12/14 01:24:24;;;;;;;23.80;11.10;;;1.40;99.90;;;;;;2073398;28;20193;-62
2020/12/14 01:25:24;;;;;;;27.03;11.90;;;1.50;99.90;;;;;;2072776;28;20173;-61
2020/12/14 01:26:25;;;;;;;20.87;10.50;;;1.50;99.90;;;;;;2072608;28;20181;-61
2020/12/14 01:27:26;;;;;;;20.47;9.93;;;1.50;99.90;;;;;;2073499;28;20182;-62
2020/12/14 01:28:27;;;;;;;18.17;9.60;;;1.50;99.90;;;;;;2073466;28;20177;-62
2020/12/14 01:29:28;;;;;;;17.92;9.65;;;1.40;99.90;;;;;;2073287;28;20792;-60
2020/12/14 01:30:28;;;;;;;16.97;9.37;;;1.50;99.90;;;;;;2073087;28;20248;-62
2020/12/14 01:31:29;;;;;;;19.27;10.33;;;1.40;99.90;;;;;;2073105;28;20264;-61
2020/12/14 01:32:30;;;;;;;23.30;10.67;;;1.40;99.90;;;;;;2073310;28;20577;-62
2020/12/14 01:33:30;;;;;;;21.77;10.03;;;1.40;99.90;;;;;;2073168;28;20181;-62
2020/12/14 01:34:31;;;;;;;17.97;9.40;;;1.50;99.90;;;;;;2073265;28;20220;-62
2020/12/14 01:35:32;;;;;;;17.73;9.63;;;1.90;99.90;;;;;;2073245;28;20177;-62
2020/12/14 01:36:33;;;;;;;17.60;8.50;;;1.40;99.90;;;;;;2073358;28;20555;-61
2020/12/14 01:37:33;;;;;;;17.60;8.63;;;1.40;99.90;;;;;;2073480;28;20186;-61
2020/12/14 01:38:34;;;;;;;18.10;9.63;;;1.40;99.90;;;;;;2073183;28;20485;-64
2020/12/14 01:39:35;;;;;;;20.30;10.20;;;1.40;99.90;;;;;;2073282;28;20182;-62
2020/12/14 01:40:35;;;;;;;22.67;9.97;;;1.40;99.90;;;;;;2073142;28;20634;-62
2020/12/14 01:41:36;;;;;;;14.30;8.03;;;1.40;99.90;;;;;;2073064;28;20263;-62
2020/12/14 01:42:46;;;;;;;17.83;9.57;;;1.30;99.90;;;;;;2073095;28;20198;-62
2020/12/14 01:43:47;;;;;;;23.60;10.57;;;1.30;99.90;;;;;;2073316;28;20185;-61
2020/12/14 01:44:51;;;;;;;24.73;10.60;;;1.40;99.90;;;;;;2073282;28;20653;-61
2020/12/14 01:45:52;;;;;;;20.17;10.05;;;1.40;99.90;;;;;;2073426;28;20220;-60
2020/12/14 01:46:53;;;;;;;29.33;11.95;;;1.30;99.90;;;;;;2073136;28;20181;-62
2020/12/14 01:48:02;;;;;;;23.15;10.18;;;1.30;99.90;;;;;;2072744;28;20585;-62
2020/12/14 01:49:03;;;;;;;27.15;10.73;;;1.30;99.90;;;;;;2066059;28;20194;-61
2020/12/14 01:50:05;;;;;;;20.17;9.43;;;1.40;99.90;;;;;;2072725;28;20173;-62
2020/12/14 01:51:06;;;;;;;24.42;10.27;;;1.40;99.90;;;;;;2072906;28;20174;-61
2020/12/14 01:52:07;;;;;;;20.43;9.53;;;1.40;99.90;;;;;;2073395;28;20213;-60
2020/12/14 01:53:10;;;;;;;28.67;11.93;;;1.40;99.90;;;;;;2072889;28;20205;-62
2020/12/14 01:54:38;;;;;;;23.45;10.45;;;1.40;99.90;;;;;;2072670;28;20200;-62
2020/12/14 01:55:42;;;;;;;23.02;10.73;;;1.30;99.90;;;;;;2065053;28;20193;-62
2020/12/14 01:56:43;;;;;;;24.00;10.57;;;1.30;99.90;;;;;;2072979;28;20182;-62
2020/12/14 01:57:44;;;;;;;23.00;10.98;;;1.30;99.90;;;;;;2072823;28;20178;-61
2020/12/14 01:58:45;;;;;;;28.30;10.80;;;1.30;99.90;;;;;;2072690;28;20634;-61
2020/12/14 01:59:46;;;;;;;23.37;9.87;;;1.30;99.90;;;;;;2073386;28;20269;-60
2020/12/14 02:00:47;;;;;;;22.80;9.73;;;1.30;99.90;;;;;;2073118;28;20193;-61
2020/12/14 02:01:49;;;;;;;21.03;9.67;;;1.30;99.90;;;;;;2073010;28;20648;-60
2020/12/14 02:02:50;;;;;;;22.70;10.27;;;1.30;99.90;;;;;;2072848;28;20223;-60
2020/12/14 02:03:50;;;;;;;19.67;9.47;;;1.30;99.90;;;;;;2073239;28;20190;-61
2020/12/14 02:04:51;;;;;;;22.53;9.90;;;1.30;99.90;;;;;;2073132;28;20174;-62
2020/12/14 02:05:52;;;;;;;13.93;8.50;;;1.30;99.90;;;;;;2073275;28;20181;-61
2020/12/14 02:06:52;;;;;;;22.57;9.57;;;1.30;99.90;;;;;;2073146;28;20261;-62
2020/12/14 02:07:53;;;;;;;17.07;9.30;;;1.20;99.90;;;;;;2073290;28;20217;-61
2020/12/14 02:08:54;;;;;;;20.20;10.20;;;1.10;99.90;;;;;;2072966;28;20656;-62
2020/12/14 02:09:55;;;;;;;28.90;11.43;;;1.10;99.90;;;;;;2073043;28;20192;-62
2020/12/14 02:10:55;;;;;;;20.97;9.33;;;1.10;99.90;;;;;;2072777;28;20174;-62
2020/12/14 02:11:56;;;;;;;20.93;9.30;;;1.20;99.90;;;;;;2073009;28;20423;-61
2020/12/14 02:12:57;;;;;;;17.53;8.67;;;1.10;99.90;;;;;;2072584;28;20240;-61
2020/12/14 02:13:58;;;;;;;28.75;10.05;;;1.20;99.90;;;;;;2072350;28;20272;-61
2020/12/14 02:16:15;;;;;;;68.82;11.68;;;1.20;99.90;;;;;;2077901;28;20234;-68
2020/12/14 02:17:19;;;;;;;22.13;9.67;;;1.20;99.90;;;;;;2080990;28;20180;-68
2020/12/14 02:18:19;;;;;;;20.00;9.75;;;1.20;99.90;;;;;;2071965;28;20248;-68
2020/12/14 02:19:20;;;;;;;24.43;10.67;;;1.20;99.90;;;;;;2072002;28;20243;-68
2020/12/14 02:20:21;;;;;;;30.43;10.53;;;1.20;99.90;;;;;;2080702;28;20181;-69
2020/12/14 02:21:21;;;;;;;20.47;9.57;;;1.20;99.90;;;;;;2071817;28;20178;-68
2020/12/14 02:22:24;;;;;;;29.60;9.73;;;1.20;99.90;;;;;;2072144;28;20213;-68
2020/12/14 02:23:25;;;;;;;18.63;9.13;;;1.20;99.90;;;;;;2072170;28;20257;-68
2020/12/14 02:24:25;;;;;;;24.73;10.70;;;1.10;99.90;;;;;;2072160;28;20190;-69
2020/12/14 02:25:26;;;;;;;21.57;9.30;;;1.20;99.90;;;;;;2080673;28;20546;-68
2020/12/14 02:26:27;;;;;;;33.90;10.97;;;1.20;99.90;;;;;;2080832;28;20242;-69
2020/12/14 02:27:29;;;;;;;31.17;11.13;;;1.20;99.90;;;;;;2081004;28;20184;-68
2020/12/14 02:28:30;;;;;;;33.40;12.38;;;1.20;99.90;;;;;;2072086;28;20181;-68
2020/12/14 02:29:31;;;;;;;42.53;13.90;;;1.10;99.90;;;;;;2072206;28;20177;-68
2020/12/14 02:30:31;;;;;;;27.57;11.57;;;1.20;99.90;;;;;;2071891;28;20165;-68
2020/12/14 02:31:32;;;;;;;32.20;12.53;;;1.20;99.90;;;;;;2071888;28;20201;-68
2020/12/14 02:32:34;;;;;;;27.83;11.47;;;1.30;99.90;;;;;;2080799;28;20173;-69
2020/12/14 02:33:34;;;;;;;37.75;13.95;;;1.30;99.90;;;;;;2080803;28;20191;-69
2020/12/14 02:34:35;;;;;;;36.03;11.80;;;1.30;99.90;;;;;;2080804;28;20196;-68
2020/12/14 02:35:35;;;;;;;23.87;11.17;;;1.30;99.90;;;;;;2080887;28;20216;-68
2020/12/14 02:36:37;;;;;;;27.63;11.40;;;1.30;99.90;;;;;;2071809;28;20182;-68
2020/12/14 02:37:38;;;;;;;22.00;11.07;;;1.30;99.90;;;;;;2063858;28;20658;-68
2020/12/14 02:38:38;;;;;;;29.73;12.03;;;1.30;99.90;;;;;;2063836;28;20249;-69
2020/12/14 02:39:39;;;;;;;25.33;11.97;;;1.30;99.90;;;;;;2080919;28;20181;-68
2020/12/14 02:40:41;;;;;;;21.35;9.93;;;1.40;99.90;;;;;;2080377;28;20193;-69
2020/12/14 02:41:41;;;;;;;22.90;10.88;;;1.90;99.90;;;;;;2080501;28;20177;-69
2020/12/14 02:42:42;;;;;;;19.37;10.07;;;1.40;99.90;;;;;;2080701;28;20520;-68
2020/12/14 02:43:43;;;;;;;26.73;11.77;;;1.40;99.90;;;;;;2080911;28;20201;-68
2020/12/14 02:44:45;;;;;;;23.40;11.10;;;1.40;99.90;;;;;;2080739;28;20195;-68
2020/12/14 02:45:46;;;;;;;15.00;8.02;;;1.40;99.90;;;;;;2080794;28;20246;-69
2020/12/14 02:46:46;;;;;;;22.00;10.63;;;1.40;99.90;;;;;;2080592;28;20177;-69
2020/12/14 02:47:47;;;;;;;17.23;10.17;;;1.50;99.90;;;;;;2080735;28;20173;-68
2020/12/14 02:48:48;;;;;;;19.23;10.40;;;1.40;99.90;;;;;;2080710;28;20173;-69
2020/12/14 02:49:49;;;;;;;21.67;10.20;;;1.40;99.90;;;;;;2080896;28;20264;-69
2020/12/14 02:50:49;;;;;;;18.17;9.73;;;1.40;99.90;;;;;;2080494;28;20196;-69
2020/12/14 02:51:50;;;;;;;21.17;10.40;;;1.40;99.90;;;;;;2080976;28;20205;-68
2020/12/14 02:52:51;;;;;;;21.30;10.77;;;1.40;99.90;;;;;;2072308;28;20177;-68
2020/12/14 02:53:51;;;;;;;18.57;10.70;;;1.40;99.90;;;;;;2073657;28;20328;-69
2020/12/14 02:54:52;;;;;;;16.73;9.87;;;1.40;99.90;;;;;;2082290;28;20869;-68
2020/12/14 02:55:53;;;;;;;16.90;10.30;;;1.40;99.90;;;;;;2082451;28;20197;-68
2020/12/14 02:56:53;;;;;;;15.53;9.47;;;1.40;99.90;;;;;;2082148;28;20169;-68
2020/12/14 02:57:54;;;;;;;17.77;10.40;;;1.30;99.90;;;;;;2082126;28;20593;-68
2020/12/14 02:58:55;;;;;;;19.07;10.40;;;1.30;99.90;;;;;;2082235;28;20177;-68
2020/12/14 02:59:56;;;;;;;14.40;9.00;;;1.30;99.90;;;;;;2082425;28;20255;-68
2020/12/14 03:00:56;;;;;;;13.90;8.83;;;1.40;99.90;;;;;;2082162;28;20203;-68
2020/12/14 03:01:57;;;;;;;18.13;10.00;;;1.30;99.90;;;;;;2082193;28;20619;-69
2020/12/14 03:02:58;;;;;;;19.47;10.07;;;1.30;99.90;;;;;;2082271;28;20315;-69
2020/12/14 03:03:58;;;;;;;17.00;9.50;;;1.30;99.90;;;;;;2082080;28;20203;-68
2020/12/14 03:04:59;;;;;;;17.23;9.13;;;1.30;99.90;;;;;;2073637;28;20231;-69
2020/12/14 03:06:00;;;;;;;16.63;9.27;;;1.30;99.90;;;;;;2073479;28;20200;-69
2020/12/14 03:07:01;;;;;;;15.23;8.57;;;1.20;99.90;;;;;;2073618;28;20341;-69
2020/12/14 03:08:01;;;;;;;14.18;8.43;;;1.20;99.90;;;;;;2082305;28;20181;-68
2020/12/14 03:09:03;;;;;;;16.27;9.03;;;1.20;99.90;;;;;;2082287;28;20187;-68
2020/12/14 03:10:05;;;;;;;14.57;8.43;;;1.20;99.90;;;;;;2082320;28;20260;-68
2020/12/14 03:11:05;;;;;;;15.52;8.88;;;1.20;99.90;;;;;;2082073;28;20561;-68
2020/12/14 03:12:06;;;;;;;14.27;9.07;;;1.20;99.90;;;;;;2082241;28;20181;-69
2020/12/14 03:13:07;;;;;;;16.53;9.10;;;1.20;99.90;;;;;;2082469;28;20656;-68
2020/12/14 03:14:08;;;;;;;14.73;9.07;;;1.20;99.90;;;;;;2082209;28;20609;-69
2020/12/14 03:15:09;;;;;;;14.23;8.25;;;1.20;99.90;;;;;;2082235;28;20212;-69
2020/12/14 03:16:10;;;;;;;15.07;9.13;;;1.20;99.90;;;;;;2082129;28;20207;-69
2020/12/14 03:17:11;;;;;;;17.10;8.97;;;1.20;99.90;;;;;;2082268;28;20181;-68
2020/12/14 03:18:11;;;;;;;15.68;8.95;;;1.20;99.90;;;;;;2082234;28;20181;-69
2020/12/14 03:19:12;;;;;;;16.43;8.80;;;1.20;99.90;;;;;;2082310;28;20553;-68
2020/12/14 03:20:13;;;;;;;15.87;8.80;;;1.10;99.90;;;;;;2081952;28;20193;-69
2020/12/14 03:21:13;;;;;;;15.10;9.07;;;1.20;99.90;;;;;;2081958;28;20185;-69
2020/12/14 03:22:14;;;;;;;16.03;9.07;;;1.20;99.90;;;;;;2082068;28;20566;-69
2020/12/14 03:23:15;;;;;;;15.77;9.37;;;1.20;99.90;;;;;;2082079;28;20201;-69
2020/12/14 03:24:15;;;;;;;13.27;8.30;;;1.10;99.90;;;;;;2082129;28;20189;-69
2020/12/14 03:25:16;;;;;;;17.50;9.87;;;1.10;99.90;;;;;;2081997;28;20189;-68
2020/12/14 03:26:17;;;;;;;17.83;9.40;;;1.10;99.90;;;;;;2081431;28;20235;-69
2020/12/14 03:27:17;;;;;;;14.13;8.77;;;1.10;99.90;;;;;;2081613;28;20172;-68
2020/12/14 03:28:18;;;;;;;14.83;8.50;;;1.20;99.90;;;;;;2082150;28;20172;-68
2020/12/14 03:29:19;;;;;;;14.10;7.57;;;1.20;99.90;;;;;;2082210;28;20181;-70
2020/12/14 03:30:20;;;;;;;14.03;8.87;;;1.10;99.90;;;;;;2082068;28;20177;-69
2020/12/14 03:31:21;;;;;;;16.10;9.02;;;1.10;99.90;;;;;;2081752;28;20175;-69
2020/12/14 03:32:22;;;;;;;16.17;9.32;;;1.10;99.90;;;;;;2082075;28;20173;-69
2020/12/14 03:33:23;;;;;;;14.97;8.60;;;1.10;99.90;;;;;;2082265;28;20178;-70
2020/12/14 03:34:23;;;;;;;15.83;8.93;;;1.10;99.90;;;;;;2082080;28;20209;-69
2020/12/14 03:35:24;;;;;;;16.97;9.73;;;1.10;99.90;;;;;;2082044;28;20180;-69
2020/12/14 03:36:25;;;;;;;14.77;9.07;;;1.10;99.90;;;;;;2081881;28;20181;-69
2020/12/14 03:37:27;;;;;;;16.53;9.53;;;1.10;99.90;;;;;;2082112;28;20218;-69
2020/12/14 03:38:28;;;;;;;14.15;8.40;;;1.10;99.90;;;;;;2073431;28;20181;-69
2020/12/14 03:39:29;;;;;;;15.97;8.80;;;1.10;99.90;;;;;;2073287;28;20196;-69
2020/12/14 03:40:29;;;;;;;16.73;9.63;;;1.10;99.90;;;;;;2082102;28;20190;-68
2020/12/14 03:41:30;;;;;;;15.27;8.70;;;1.10;99.90;;;;;;2081790;28;20176;-70
2020/12/14 03:42:31;;;;;;;13.00;7.87;;;1.10;99.90;;;;;;2082026;28;20174;-69
2020/12/14 03:43:33;;;;;;;19.03;9.53;;;1.00;99.90;;;;;;2081349;28;20223;-70
2020/12/14 03:44:33;;;;;;;15.27;8.98;;;1.00;99.90;;;;;;2081531;28;20184;-68
2020/12/14 03:45:34;;;;;;;14.37;8.67;;;1.00;99.90;;;;;;2081442;28;20267;-69
2020/12/14 03:46:35;;;;;;;18.10;9.50;;;1.00;99.90;;;;;;2073369;28;20181;-69
2020/12/14 03:47:36;;;;;;;18.67;9.80;;;1.00;99.90;;;;;;2073205;28;20528;-69
2020/12/14 03:48:36;;;;;;;16.23;9.70;;;1.00;99.90;;;;;;2081587;28;20185;-69
2020/12/14 03:49:38;;;;;;;17.03;9.50;;;1.00;99.90;;;;;;2081446;28;20637;-69
2020/12/14 03:50:42;;;;;;;21.60;10.35;;;1.00;99.90;;;;;;2063649;28;20177;-69
2020/12/14 03:51:43;;;;;;;19.90;10.00;;;1.00;99.90;;;;;;2068500;28;20610;-69
2020/12/14 03:52:44;;;;;;;15.53;8.83;;;1.00;99.90;;;;;;2081224;28;20271;-69
2020/12/14 03:53:44;;;;;;;15.53;8.93;;;1.00;99.90;;;;;;2082106;28;20724;-69
2020/12/14 03:54:45;;;;;;;17.70;9.67;;;0.90;99.90;;;;;;2082127;28;20280;-69
2020/12/14 03:55:46;;;;;;;17.53;9.43;;;0.90;99.90;;;;;;2081533;28;20284;-69
2020/12/14 03:56:46;;;;;;;21.87;10.20;;;0.90;99.90;;;;;;2073246;28;20260;-68
2020/12/14 03:57:47;;;;;;;20.87;9.67;;;0.90;99.90;;;;;;2081655;28;20246;-69
2020/12/14 03:58:48;;;;;;;19.57;9.83;;;1.00;99.90;;;;;;2081787;28;20180;-69
2020/12/14 03:59:49;;;;;;;17.07;9.13;;;0.90;99.90;;;;;;2082145;28;20628;-69
2020/12/14 04:00:49;;;;;;;17.87;10.63;;;0.90;99.90;;;;;;2081916;28;20196;-68
2020/12/14 04:01:56;;;;;;;19.93;10.30;;;1.00;99.90;;;;;;2081974;28;20173;-68
2020/12/14 04:02:57;;;;;;;15.95;9.02;;;0.90;99.90;;;;;;2081951;28;20181;-68
2020/12/14 04:03:57;;;;;;;15.77;9.40;;;0.90;99.90;;;;;;2081458;28;20178;-69
2020/12/14 04:04:58;;;;;;;16.90;9.60;;;0.90;99.90;;;;;;2080743;28;20180;-69
2020/12/14 04:05:59;;;;;;;25.03;11.10;;;0.90;99.90;;;;;;2081266;28;20199;-69
2020/12/14 04:06:59;;;;;;;17.70;9.53;;;0.90;99.90;;;;;;2081964;28;20188;-68
2020/12/14 04:08:00;;;;;;;18.47;9.80;;;0.90;99.90;;;;;;2081848;28;20625;-69
2020/12/14 04:09:01;;;;;;;18.00;10.37;;;0.80;99.90;;;;;;2081076;28;20252;-68
2020/12/14 04:10:02;;;;;;;22.47;11.23;;;0.80;99.90;;;;;;2081100;28;20223;-68
2020/12/14 04:11:03;;;;;;;20.67;10.60;;;0.80;99.90;;;;;;2081696;28;20191;-69
2020/12/14 04:12:04;;;;;;;22.95;11.05;;;0.80;99.90;;;;;;2081836;28;20177;-69
2020/12/14 04:13:05;;;;;;;24.33;11.13;;;0.80;99.90;;;;;;2081874;28;20213;-68
2020/12/14 04:14:05;;;;;;;23.03;10.27;;;0.80;99.90;;;;;;2081758;28;20200;-69
2020/12/14 04:15:06;;;;;;;24.13;11.27;;;0.80;99.90;;;;;;2081049;28;20185;-69
2020/12/14 04:16:10;;;;;;;20.77;10.87;;;0.80;99.90;;;;;;2081076;28;20200;-69
2020/12/14 04:17:11;;;;;;;21.40;11.65;;;0.80;99.90;;;;;;2081855;28;20182;-69
2020/12/14 04:18:12;;;;;;;22.20;11.23;;;0.80;99.90;;;;;;2081728;28;20552;-69
2020/12/14 04:19:12;;;;;;;18.97;11.07;;;0.80;99.90;;;;;;2081778;28;20193;-68
2020/12/14 04:20:13;;;;;;;26.90;12.10;;;0.70;99.90;;;;;;2081503;28;20232;-68
2020/12/14 04:21:17;;;;;;;19.90;10.33;;;0.80;99.90;;;;;;2081626;28;20195;-69
2020/12/14 04:22:17;;;;;;;20.50;10.70;;;0.80;99.90;;;;;;2089316;28;20188;-69
2020/12/14 04:23:18;;;;;;;22.00;10.93;;;0.80;99.90;;;;;;2089322;28;20201;-68
2020/12/14 04:24:19;;;;;;;20.90;10.37;;;0.80;99.90;;;;;;2081621;28;20177;-69
2020/12/14 04:25:19;;;;;;;23.63;11.87;;;0.80;99.90;;;;;;2081673;28;20672;-69
2020/12/14 04:26:21;;;;;;;25.63;12.57;;;0.70;99.90;;;;;;2081453;28;20289;-69
2020/12/14 04:27:22;;;;;;;25.42;11.80;;;0.80;99.90;;;;;;2081765;28;20177;-69
2020/12/14 04:28:23;;;;;;;21.60;10.20;;;0.70;99.90;;;;;;2081546;28;20181;-69
2020/12/14 04:29:24;;;;;;;23.43;11.80;;;0.80;99.90;;;;;;2081800;28;20552;-69
2020/12/14 04:30:26;;;;;;;28.70;11.10;;;0.80;99.90;;;;;;2081652;28;20652;-69
2020/12/14 04:31:27;;;;;;;23.95;11.38;;;0.80;99.90;;;;;;2081462;28;20612;-69
2020/12/14 04:32:28;;;;;;;25.67;12.27;;;0.80;99.90;;;;;;2081684;28;20200;-69
2020/12/14 04:33:29;;;;;;;33.27;13.13;;;0.80;99.90;;;;;;2081627;28;20660;-69
2020/12/14 04:34:30;;;;;;;29.52;12.05;;;0.80;99.90;;;;;;2080983;28;20266;-69
2020/12/14 04:35:31;;;;;;;19.87;10.10;;;0.80;99.90;;;;;;2080938;28;20247;-69
2020/12/14 04:36:32;;;;;;;26.80;12.17;;;0.80;99.90;;;;;;2081126;28;20188;-68
2020/12/14 04:37:33;;;;;;;29.70;12.85;;;0.80;99.90;;;;;;2081617;28;20185;-68
2020/12/14 04:38:34;;;;;;;31.37;13.00;;;0.80;99.90;;;;;;2081424;28;20185;-69
2020/12/14 04:39:35;;;;;;;37.33;15.07;;;0.80;99.90;;;;;;2080975;28;20248;-69
2020/12/14 04:40:36;;;;;;;32.08;14.30;;;0.80;99.90;;;;;;2080939;28;20188;-69
2020/12/14 04:41:36;;;;;;;32.13;12.43;;;0.80;99.90;;;;;;2081401;28;20866;-68
2020/12/14 04:42:38;;;;;;;30.60;13.33;;;0.80;99.90;;;;;;2081427;28;20227;-69
2020/12/14 04:43:41;;;;;;;31.10;12.40;;;0.80;99.90;;;;;;2072717;28;20239;-69
2020/12/14 04:44:43;;;;;;;26.73;11.00;;;0.80;99.90;;;;;;2064774;28;20182;-68
2020/12/14 04:45:45;;;;;;;40.78;14.13;;;0.80;99.90;;;;;;2072993;28;20190;-69
2020/12/14 04:46:49;;;;;;;35.63;12.20;;;0.80;99.90;;;;;;2072731;28;20192;-69
2020/12/14 04:47:49;;;;;;;26.25;11.43;;;0.80;99.90;;;;;;2064777;28;20190;-69
2020/12/14 04:48:51;;;;;;;29.10;12.47;;;0.80;99.90;;;;;;2072722;28;20607;-69
2020/12/14 04:49:55;;;;;;;28.00;12.07;;;0.70;99.90;;;;;;2072775;28;20185;-68
2020/12/14 04:50:57;;;;;;;37.15;12.85;;;0.80;99.90;;;;;;2072831;28;20205;-69
2020/12/14 04:51:58;;;;;;;30.60;12.30;;;0.70;99.90;;;;;;2081610;28;20239;-69
2020/12/14 04:53:04;;;;;;;21.03;10.60;;;0.80;99.90;;;;;;2080737;28;20230;-69
2020/12/14 04:54:06;;;;;;;27.27;12.02;;;0.70;99.90;;;;;;2080845;28;20203;-69
2020/12/14 04:55:07;;;;;;;24.63;10.57;;;0.70;99.90;;;;;;2081355;28;20537;-69
2020/12/14 04:56:10;;;;;;;27.55;11.18;;;0.70;99.90;;;;;;2081515;28;20215;-69
2020/12/14 04:57:14;;;;;;;21.23;10.77;;;0.80;99.90;;;;;;2072555;28;20174;-69
2020/12/14 04:58:14;;;;;;;25.95;12.57;;;0.80;99.90;;;;;;2073315;28;20204;-68
2020/12/14 04:59:15;;;;;;;23.97;11.50;;;0.80;99.90;;;;;;2081328;28;20653;-69
2020/12/14 05:00:20;;;;;;;29.33;12.27;;;0.80;99.90;;;;;;2072652;28;20185;-69
2020/12/14 05:01:22;;;;;;;24.20;11.77;;;0.80;99.90;;;;;;2072873;28;20228;-69
2020/12/14 05:02:22;;;;;;;22.90;11.05;;;0.80;99.90;;;;;;2081552;28;20330;-68
2020/12/14 05:03:23;;;;;;;26.97;11.27;;;0.80;99.90;;;;;;2081248;28;20201;-68
2020/12/14 05:04:24;;;;;;;26.63;11.07;;;0.80;99.90;;;;;;2081099;28;20200;-69
2020/12/14 05:05:24;;;;;;;21.33;9.70;;;0.80;99.90;;;;;;2081283;28;20212;-69
2020/12/14 05:06:25;;;;;;;20.20;10.10;;;0.80;99.90;;;;;;2081307;28;20188;-69
2020/12/14 05:07:43;;;;;;;20.50;10.20;;;0.70;99.90;;;;;;2081285;28;20184;-69
2020/12/14 05:08:44;;;;;;;22.10;10.07;;;0.70;99.90;;;;;;2072554;28;20169;-69
2020/12/14 05:09:45;;;;;;;25.03;10.40;;;0.70;99.90;;;;;;2072396;28;20199;-69
2020/12/14 05:10:46;;;;;;;21.83;10.00;;;0.70;99.90;;;;;;2080603;28;20248;-69
2020/12/14 05:11:46;;;;;;;23.73;11.07;;;0.70;99.90;;;;;;2080533;28;20599;-69
2020/12/14 05:12:47;;;;;;;22.50;10.63;;;0.60;99.90;;;;;;2081239;28;20180;-68
2020/12/14 05:13:48;;;;;;;32.17;12.57;;;0.60;99.90;;;;;;2081329;28;20184;-70
2020/12/14 05:14:49;;;;;;;25.73;10.77;;;0.60;99.90;;;;;;2080732;28;20652;-69
2020/12/14 05:15:49;;;;;;;29.17;12.87;;;0.60;99.90;;;;;;2080147;28;20386;-69
2020/12/14 05:16:51;;;;;;;28.97;12.10;;;0.70;99.90;;;;;;2080645;28;20192;-69
2020/12/14 05:18:13;;;;;;;29.70;12.85;;;0.60;99.90;;;;;;2080686;28;20172;-68